createdAt,value
2024-02-22T00:01:14.165Z,6.25
2024-02-22T00:03:42.011Z,7.25
2024-02-22T00:06:09.819Z,6.83
2024-02-22T00:08:37.616Z,5.70
2024-02-22T00:11:05.764Z,7.60
2024-02-22T00:13:33.802Z,7.45
2024-02-22T00:16:05.127Z,8.17
2024-02-22T00:18:34.337Z,7.30
2024-02-22T00:21:02.122Z,7.13
2024-02-22T00:23:29.850Z,7.43
2024-02-22T00:25:57.651Z,7.28
2024-02-22T00:28:25.415Z,8.23
2024-02-22T00:30:53.134Z,7.87
2024-02-22T00:33:21.691Z,8.25
2024-02-22T00:35:49.433Z,8.52
2024-02-22T00:38:17.150Z,7.38
2024-02-22T00:40:44.900Z,7.30
2024-02-22T00:43:12.654Z,7.90
2024-02-22T00:45:40.382Z,8.68
2024-02-22T00:48:08.360Z,10.30
2024-02-22T00:50:36.266Z,7.35
2024-02-22T00:53:04.154Z,8.57
2024-02-22T00:55:32.076Z,7.23
2024-02-22T00:57:59.803Z,8.00
2024-02-22T01:00:27.500Z,7.82
2024-02-22T01:02:55.892Z,8.98
2024-02-22T01:05:23.704Z,9.67
2024-02-22T01:07:51.540Z,8.50
2024-02-22T01:10:19.321Z,8.57
2024-02-22T01:12:47.545Z,9.80
2024-02-22T01:15:15.309Z,9.18
2024-02-22T01:17:43.102Z,11.70
2024-02-22T01:20:12.700Z,8.70
2024-02-22T01:22:41.161Z,14.68
2024-02-22T01:25:09.660Z,12.68
2024-02-22T01:27:37.698Z,13.02
2024-02-22T01:30:05.651Z,11.13
2024-02-22T01:32:33.422Z,9.40
2024-02-22T01:35:01.222Z,11.43
2024-02-22T01:37:29.079Z,13.23
2024-02-22T01:39:56.903Z,11.02
2024-02-22T01:42:24.635Z,10.10
2024-02-22T01:44:52.380Z,11.53
2024-02-22T01:47:20.722Z,13.27
2024-02-22T01:49:48.550Z,13.95
2024-02-22T01:52:16.342Z,9.88
2024-02-22T01:54:44.113Z,14.77
2024-02-22T01:57:11.871Z,12.32
2024-02-22T01:59:39.646Z,17.77
2024-02-22T02:02:07.521Z,14.40
2024-02-22T02:04:35.244Z,15.70
2024-02-22T02:07:03.055Z,14.73
2024-02-22T02:09:30.751Z,12.53
2024-02-22T02:11:58.557Z,13.57
2024-02-22T02:14:27.572Z,15.15
2024-02-22T02:16:55.435Z,14.45
2024-02-22T02:19:25.565Z,24.17
2024-02-22T02:21:56.278Z,22.35
2024-02-22T02:24:24.016Z,16.63
2024-02-22T02:26:52.043Z,21.03
2024-02-22T02:29:19.909Z,25.20
2024-02-22T02:31:47.699Z,21.13
2024-02-22T02:34:15.519Z,25.50
2024-02-22T02:36:43.356Z,21.83
2024-02-22T02:39:11.105Z,19.52
2024-02-22T02:41:39.003Z,21.67
2024-02-22T02:44:06.886Z,27.60
2024-02-22T02:46:34.866Z,30.77
2024-02-22T02:49:02.652Z,45.15
2024-02-22T02:51:31.282Z,44.80
2024-02-22T02:53:59.049Z,35.35
2024-02-22T02:56:26.816Z,42.30
2024-02-22T02:58:54.548Z,43.47
2024-02-22T03:01:22.430Z,55.22
2024-02-22T03:03:50.681Z,43.88
2024-02-22T03:06:19.040Z,82.18
2024-02-22T03:08:46.925Z,52.23
2024-02-22T03:11:14.884Z,84.75
2024-02-22T03:13:42.951Z,84.55
2024-02-22T03:16:12.642Z,95.67
2024-02-22T03:18:40.541Z,93.65
2024-02-22T03:21:10.366Z,85.38
2024-02-22T03:23:38.244Z,105.47
2024-02-22T03:26:08.407Z,107.72
2024-02-22T03:28:36.794Z,90.47
2024-02-22T03:31:04.581Z,119.93
2024-02-22T03:33:32.646Z,102.90
2024-02-22T03:36:01.530Z,85.90
2024-02-22T03:38:29.439Z,118.45
2024-02-22T03:40:57.600Z,100.43
2024-02-22T03:43:25.426Z,113.38
2024-02-22T03:45:53.297Z,105.03
2024-02-22T03:48:21.157Z,106.43
2024-02-22T03:50:48.997Z,109.10
2024-02-22T03:53:16.974Z,79.82
2024-02-22T03:55:44.863Z,116.28
2024-02-22T03:58:12.613Z,80.47
2024-02-22T04:00:40.516Z,85.80
2024-02-22T04:03:08.288Z,108.57
2024-02-22T04:05:36.217Z,95.17
2024-02-22T04:08:04.135Z,103.10
2024-02-22T04:10:32.502Z,108.50
2024-02-22T04:13:00.303Z,90.10
2024-02-22T04:15:28.239Z,100.15
2024-02-22T04:17:56.171Z,64.18
2024-02-22T04:20:24.017Z,78.10
2024-02-22T04:22:51.885Z,86.97
2024-02-22T04:25:19.839Z,75.63
2024-02-22T04:27:47.654Z,68.88
2024-02-22T04:30:15.629Z,100.00
2024-02-22T04:32:43.550Z,88.40
2024-02-22T04:35:12.336Z,104.10
2024-02-22T04:37:40.615Z,83.83
2024-02-22T04:40:09.334Z,99.38
2024-02-22T04:42:37.108Z,111.43
2024-02-22T04:45:05.878Z,91.13
2024-02-22T04:47:39.145Z,107.67
2024-02-22T04:50:07.965Z,103.78
2024-02-22T04:52:35.837Z,78.80
2024-02-22T04:55:05.008Z,66.30
2024-02-22T04:57:33.182Z,93.50
2024-02-22T05:00:01.072Z,85.38
2024-02-22T05:02:29.158Z,87.07
2024-02-22T05:04:57.097Z,95.40
2024-02-22T05:07:24.924Z,88.70
2024-02-22T05:09:52.723Z,129.68
2024-02-22T05:12:20.481Z,101.53
2024-02-22T05:14:48.527Z,116.93
2024-02-22T05:17:16.426Z,118.13
2024-02-22T05:19:44.208Z,132.10
2024-02-22T05:22:12.055Z,167.90
2024-02-22T05:24:39.793Z,145.00
2024-02-22T05:27:07.849Z,168.87
2024-02-22T05:29:35.621Z,157.02
2024-02-22T05:32:03.491Z,176.98
2024-02-22T05:34:31.465Z,164.40
2024-02-22T05:36:59.203Z,225.03
2024-02-22T05:39:27.001Z,214.20
2024-02-22T05:41:55.158Z,227.68
2024-02-22T05:44:23.111Z,229.47
2024-02-22T05:46:50.962Z,238.95
2024-02-22T05:49:18.762Z,185.07
2024-02-22T05:51:46.570Z,218.57
2024-02-22T05:54:14.319Z,277.67
2024-02-22T05:56:42.412Z,218.70
2024-02-22T05:59:10.187Z,179.02
2024-02-22T06:01:37.993Z,190.93
2024-02-22T06:04:05.925Z,179.35
2024-02-22T06:06:33.737Z,243.98
2024-02-22T06:09:01.676Z,232.33
2024-02-22T06:11:29.527Z,245.25
2024-02-22T06:13:57.279Z,268.80
2024-02-22T06:16:24.982Z,238.60
2024-02-22T06:18:52.974Z,207.35
2024-02-22T06:21:20.754Z,206.98
2024-02-22T06:23:48.926Z,199.85
2024-02-22T06:26:17.353Z,237.33
2024-02-22T06:28:45.478Z,183.68
2024-02-22T06:31:13.248Z,125.70
2024-02-22T06:33:41.089Z,143.60
2024-02-22T06:36:11.272Z,124.05
2024-02-22T06:38:47.164Z,70.78
2024-02-22T06:41:19.716Z,66.50
2024-02-22T06:43:47.706Z,87.97
2024-02-22T06:46:17.598Z,70.35
2024-02-22T06:48:46.732Z,67.32
2024-02-22T06:51:14.568Z,53.23
2024-02-22T06:53:42.389Z,65.93
2024-02-22T06:56:10.140Z,68.25
2024-02-22T06:58:37.890Z,70.97
2024-02-22T07:01:06.419Z,75.80
2024-02-22T07:03:34.236Z,86.30
2024-02-22T07:06:02.423Z,62.50
2024-02-22T07:08:30.286Z,61.30
2024-02-22T07:10:58.217Z,79.10
2024-02-22T07:13:26.061Z,81.85
2024-02-22T07:15:53.852Z,77.43
2024-02-22T07:18:21.762Z,73.80
2024-02-22T07:20:49.581Z,64.78
2024-02-22T07:23:17.504Z,72.60
2024-02-22T07:25:45.481Z,71.13
2024-02-22T07:28:15.161Z,86.47
2024-02-22T07:30:43.252Z,68.60
2024-02-22T07:33:11.253Z,78.80
2024-02-22T07:35:39.278Z,50.63
2024-02-22T07:38:07.303Z,55.35
2024-02-22T07:40:35.153Z,62.17
2024-02-22T07:43:03.038Z,64.15
2024-02-22T07:45:30.952Z,46.45
2024-02-22T07:48:00.176Z,44.07
2024-02-22T07:50:29.534Z,40.80
2024-02-22T07:52:57.522Z,56.15
2024-02-22T07:55:25.460Z,58.73
2024-02-22T07:57:54.336Z,42.15
2024-02-22T08:00:22.234Z,44.28
2024-02-22T08:02:50.229Z,51.13
2024-02-22T08:05:18.727Z,43.43
2024-02-22T08:07:49.203Z,34.90
2024-02-22T08:10:18.878Z,37.22
2024-02-22T08:12:46.845Z,44.97
2024-02-22T08:15:14.782Z,46.67
2024-02-22T08:17:42.693Z,33.92
2024-02-22T08:20:11.086Z,37.10
2024-02-22T08:22:39.185Z,40.20
2024-02-22T08:25:07.396Z,40.13
2024-02-22T08:27:36.806Z,34.45
2024-02-22T08:30:06.509Z,38.83
2024-02-22T08:32:34.366Z,39.65
2024-02-22T08:35:02.705Z,39.42
2024-02-22T08:37:30.831Z,40.37
2024-02-22T08:39:58.590Z,39.70
2024-02-22T08:42:26.401Z,35.83
2024-02-22T08:44:55.238Z,44.43
2024-02-22T08:47:23.201Z,30.70
2024-02-22T08:50:15.770Z,36.85
2024-02-22T08:52:43.725Z,28.17
2024-02-22T08:55:14.151Z,23.57
2024-02-22T08:57:51.254Z,28.45
2024-02-22T09:00:21.210Z,28.77
2024-02-22T09:02:49.897Z,31.67
2024-02-22T09:05:17.921Z,26.27
2024-02-22T09:07:45.938Z,36.35
2024-02-22T09:10:13.916Z,33.90
2024-02-22T09:12:41.904Z,28.67
2024-02-22T09:15:10.200Z,28.85
2024-02-22T09:17:38.072Z,26.27
2024-02-22T09:20:06.338Z,27.73
2024-02-22T09:22:34.313Z,33.70
2024-02-22T09:25:02.207Z,19.80
2024-02-22T09:27:31.742Z,29.80
2024-02-22T09:30:02.705Z,25.67
2024-02-22T09:32:30.602Z,22.83
2024-02-22T09:34:58.533Z,30.70
2024-02-22T09:37:28.623Z,23.35
2024-02-22T09:39:56.679Z,23.77
2024-02-22T09:42:29.148Z,27.02
2024-02-22T09:44:57.786Z,15.60
2024-02-22T09:48:16.048Z,28.02
2024-02-22T09:52:12.232Z,23.48
2024-02-22T09:54:40.006Z,13.87
2024-02-22T09:57:07.853Z,16.33
2024-02-22T09:59:35.733Z,17.10
2024-02-22T10:02:08.200Z,13.73
2024-02-22T10:04:36.127Z,19.67
2024-02-22T10:07:04.419Z,20.88
2024-02-22T10:09:32.601Z,20.83
2024-02-22T10:12:07.252Z,18.20
2024-02-22T10:14:38.385Z,17.85
2024-02-22T10:17:09.509Z,20.05
2024-02-22T10:19:37.464Z,22.50
2024-02-22T10:22:05.507Z,22.52
2024-02-22T10:24:33.922Z,18.98
2024-02-22T10:27:08.267Z,16.27
2024-02-22T10:29:38.352Z,21.80
2024-02-22T10:32:06.598Z,17.45
2024-02-22T10:34:34.651Z,19.23
2024-02-22T10:37:05.495Z,21.30
2024-02-22T10:39:33.315Z,25.80
2024-02-22T10:42:01.120Z,19.33
2024-02-22T10:44:28.911Z,22.90
2024-02-22T10:46:56.812Z,20.98
2024-02-22T10:49:24.912Z,20.23
2024-02-22T10:51:53.859Z,19.73
2024-02-22T10:54:25.529Z,16.38
2024-02-22T10:56:53.315Z,15.35
2024-02-22T10:59:21.941Z,18.23
2024-02-22T11:01:50.022Z,17.63
2024-02-22T11:04:18.012Z,21.70
2024-02-22T11:06:45.826Z,15.02
2024-02-22T11:09:23.213Z,18.67
2024-02-22T11:11:52.855Z,16.13
2024-02-22T11:14:27.940Z,21.13
2024-02-22T11:16:56.119Z,25.77
2024-02-22T11:19:28.140Z,17.33
2024-02-22T11:21:55.997Z,16.05
2024-02-22T11:24:27.268Z,14.93
2024-02-22T11:26:57.328Z,19.20
2024-02-22T11:29:30.686Z,16.20
2024-02-22T11:32:02.052Z,18.75
2024-02-22T11:34:30.443Z,14.30
2024-02-22T11:36:58.760Z,23.52
2024-02-22T11:39:28.558Z,20.88
2024-02-22T11:41:56.372Z,19.60
2024-02-22T11:44:24.271Z,17.05
2024-02-22T11:46:52.210Z,20.35
2024-02-22T11:49:22.723Z,17.55
2024-02-22T11:51:51.503Z,18.03
2024-02-22T11:54:20.581Z,15.57
2024-02-22T11:56:48.986Z,19.02
2024-02-22T11:59:16.928Z,14.23
2024-02-22T12:01:44.950Z,12.02
2024-02-22T12:04:12.788Z,18.15
2024-02-22T12:06:40.707Z,16.27
2024-02-22T12:09:13.917Z,14.52
2024-02-22T12:11:43.104Z,11.65
2024-02-22T12:14:15.054Z,11.77
2024-02-22T12:16:43.007Z,8.63
2024-02-22T12:19:10.860Z,11.68
2024-02-22T12:21:39.784Z,12.95
2024-02-22T12:24:07.848Z,11.20
2024-02-22T12:26:35.737Z,17.63
2024-02-22T12:29:03.729Z,12.45
2024-02-22T12:31:31.648Z,10.03
2024-02-22T12:34:00.486Z,11.23
2024-02-22T12:36:31.708Z,8.68
2024-02-22T12:39:00.217Z,11.25
2024-02-22T12:41:28.257Z,11.53
2024-02-22T12:43:58.869Z,10.20
2024-02-22T12:46:29.165Z,12.90
2024-02-22T12:48:57.202Z,10.40
2024-02-22T12:51:25.643Z,8.45
2024-02-22T12:53:56.761Z,12.38
2024-02-22T12:56:25.990Z,10.53
2024-02-22T12:58:55.305Z,11.68
2024-02-22T13:01:23.562Z,11.45
2024-02-22T13:03:51.416Z,5.65
2024-02-22T13:06:20.231Z,5.97
2024-02-22T13:08:48.138Z,5.93
2024-02-22T13:11:16.435Z,6.03
2024-02-22T13:13:44.381Z,5.00
2024-02-22T13:16:12.290Z,3.72
2024-02-22T13:18:40.369Z,4.97
2024-02-22T13:21:08.263Z,4.87
2024-02-22T13:23:36.224Z,3.00
2024-02-22T13:26:04.385Z,2.80
2024-02-22T13:28:33.137Z,2.75
2024-02-22T13:31:01.081Z,2.53
2024-02-22T13:33:29.319Z,4.20
2024-02-22T13:35:57.757Z,2.28
2024-02-22T13:38:26.006Z,6.07
2024-02-22T13:40:53.967Z,3.83
2024-02-22T13:43:22.657Z,3.30
2024-02-22T13:45:53.533Z,2.47
2024-02-22T13:48:21.491Z,2.20
2024-02-22T13:50:49.587Z,3.65
2024-02-22T13:53:17.695Z,3.03
2024-02-22T13:55:49.876Z,2.40
2024-02-22T13:58:17.876Z,3.83
2024-02-22T14:00:47.317Z,2.40
2024-02-22T14:03:15.343Z,3.83
2024-02-22T14:05:43.398Z,3.92
2024-02-22T14:08:11.687Z,5.78
2024-02-22T14:10:40.778Z,4.93
2024-02-22T14:13:09.236Z,7.93
2024-02-22T14:15:40.320Z,7.20
2024-02-22T14:18:08.621Z,7.43
2024-02-22T14:20:36.920Z,7.27
2024-02-22T14:23:05.029Z,10.32
2024-02-22T14:25:32.938Z,9.15
2024-02-22T14:28:00.795Z,7.97
2024-02-22T14:30:28.601Z,10.40
2024-02-22T14:32:56.463Z,12.00
2024-02-22T14:35:28.041Z,12.87
2024-02-22T14:37:55.972Z,10.07
2024-02-22T14:40:23.844Z,9.07
2024-02-22T14:42:51.628Z,12.02
2024-02-22T14:45:19.476Z,10.23
2024-02-22T14:47:47.482Z,9.02
2024-02-22T14:50:17.892Z,11.35
2024-02-22T14:52:45.842Z,10.33
2024-02-22T14:55:13.734Z,6.82
2024-02-22T14:57:41.627Z,5.53
2024-02-22T15:00:10.155Z,6.70
2024-02-22T15:02:40.266Z,7.90
2024-02-22T15:05:08.511Z,7.25
2024-02-22T15:07:36.420Z,7.38
2024-02-22T15:10:04.454Z,7.03
2024-02-22T15:12:32.473Z,5.35
2024-02-22T15:15:10.598Z,7.72
2024-02-22T15:17:39.174Z,8.17
2024-02-22T15:20:08.998Z,5.28
2024-02-22T15:22:36.955Z,5.60
2024-02-22T15:25:06.008Z,7.70
2024-02-22T15:27:38.264Z,7.45
2024-02-22T15:30:09.001Z,7.00
2024-02-22T15:32:37.123Z,9.07
2024-02-22T15:35:05.360Z,5.63
2024-02-22T15:37:33.316Z,7.72
2024-02-22T15:40:01.343Z,8.60
2024-02-22T15:42:29.387Z,7.80
2024-02-22T15:44:57.274Z,9.75
2024-02-22T15:47:25.175Z,6.40
2024-02-22T15:49:53.052Z,7.27
2024-02-22T15:52:20.866Z,6.18
2024-02-22T15:54:50.730Z,5.25
2024-02-22T15:57:18.740Z,7.63
2024-02-22T15:59:49.307Z,5.33
2024-02-22T16:02:17.453Z,5.78
2024-02-22T16:04:45.529Z,5.47
2024-02-22T16:07:15.302Z,5.13
2024-02-22T16:09:44.571Z,5.25
2024-02-22T16:12:14.416Z,6.18
2024-02-22T16:14:43.038Z,4.90
2024-02-22T16:17:10.981Z,5.13
2024-02-22T16:19:38.801Z,4.63
2024-02-22T16:22:12.057Z,3.22
2024-02-22T16:24:40.112Z,4.77
2024-02-22T16:27:10.995Z,4.20
2024-02-22T16:29:39.011Z,3.63
2024-02-22T16:32:07.082Z,5.30
2024-02-22T16:34:35.002Z,3.40
2024-02-22T16:37:02.883Z,3.58
2024-02-22T16:39:35.186Z,2.13
2024-02-22T16:42:07.230Z,3.58
2024-02-22T16:44:40.131Z,7.53
2024-02-22T16:47:11.146Z,3.63
2024-02-22T16:49:40.136Z,4.30
2024-02-22T16:52:10.885Z,4.72
2024-02-22T16:54:38.821Z,3.97
2024-02-22T16:57:06.862Z,3.90
2024-02-22T16:59:34.727Z,5.55
2024-02-22T17:02:03.868Z,4.00
2024-02-22T17:04:31.857Z,3.73
2024-02-22T17:07:00.150Z,4.30
2024-02-22T17:09:28.260Z,4.35
2024-02-22T17:11:57.290Z,4.18
2024-02-22T17:14:25.714Z,3.13
2024-02-22T17:16:54.041Z,4.45
2024-02-22T17:19:23.425Z,7.53
2024-02-22T17:21:51.340Z,4.70
2024-02-22T17:24:21.711Z,5.25
2024-02-22T17:26:50.056Z,4.15
2024-02-22T17:29:18.186Z,5.23
2024-02-22T17:31:45.958Z,4.68
2024-02-22T17:34:13.789Z,5.78
2024-02-22T17:36:41.776Z,6.50
2024-02-22T17:39:09.531Z,6.80
2024-02-22T17:41:37.381Z,6.10
2024-02-22T17:44:05.161Z,6.30
2024-02-22T17:46:33.068Z,5.07
2024-02-22T17:49:00.913Z,8.77
2024-02-22T17:51:31.368Z,5.72
2024-02-22T17:54:04.553Z,5.67
2024-02-22T17:56:33.048Z,5.22
2024-02-22T17:59:00.867Z,6.88
2024-02-22T18:01:33.599Z,8.52
2024-02-22T18:04:05.368Z,6.33
2024-02-22T18:06:34.813Z,6.68
2024-02-22T18:09:06.278Z,8.32
2024-02-22T18:11:34.227Z,4.97
2024-02-22T18:14:03.959Z,5.63
2024-02-22T18:16:35.416Z,7.63
2024-02-22T18:19:03.364Z,6.33
2024-02-22T18:21:31.503Z,4.50
2024-02-22T18:23:59.294Z,4.50
2024-02-22T18:26:30.698Z,4.82
2024-02-22T18:28:58.525Z,5.90
2024-02-22T18:31:26.266Z,3.30
2024-02-22T18:33:54.243Z,3.63
2024-02-22T18:36:22.370Z,2.93
2024-02-22T18:38:51.521Z,3.22
2024-02-22T18:41:20.199Z,1.90
2024-02-22T18:43:48.024Z,1.20
2024-02-22T18:46:15.797Z,2.13
2024-02-22T18:48:43.719Z,0.85
2024-02-22T18:51:14.178Z,0.90
2024-02-22T18:53:45.634Z,0.20
2024-02-22T18:56:13.849Z,0.20
2024-02-22T18:58:41.710Z,0.20
2024-02-22T19:01:10.027Z,13.60
2024-02-22T19:03:38.012Z,0.75
2024-02-22T19:06:06.189Z,1.23
2024-02-22T19:08:38.913Z,3.13
2024-02-22T19:11:07.015Z,0.20
2024-02-22T19:13:34.920Z,0.10
2024-02-22T19:16:02.761Z,0.95
2024-02-22T19:18:30.654Z,0.70
2024-02-22T19:20:59.425Z,0.20
2024-02-22T19:23:27.489Z,0.40
2024-02-22T19:25:56.171Z,0.20
2024-02-22T19:28:24.528Z,0.40
2024-02-22T19:30:52.274Z,3.20
2024-02-22T19:33:20.239Z,0.10
2024-02-22T19:35:48.211Z,1.33
2024-02-22T19:38:21.310Z,0.55
2024-02-22T19:40:52.564Z,0.40
2024-02-22T19:43:20.514Z,0.37
2024-02-22T19:45:48.470Z,1.95
2024-02-22T19:48:17.708Z,0.10
2024-02-22T19:50:46.185Z,0.37
2024-02-22T19:53:14.325Z,3.35
2024-02-22T19:55:44.324Z,1.27
2024-02-22T19:58:12.981Z,0.30
2024-02-22T20:00:40.863Z,0.28
2024-02-22T20:03:08.771Z,0.10
2024-02-22T20:05:38.147Z,1.02
2024-02-22T20:08:06.571Z,0.43
2024-02-22T20:10:35.842Z,0.43
2024-02-22T20:13:03.839Z,0.70
2024-02-22T20:15:31.846Z,0.20
2024-02-22T20:18:01.577Z,2.40
2024-02-22T20:20:29.843Z,0.32
2024-02-22T20:22:58.270Z,2.83
2024-02-22T20:25:26.955Z,0.95
2024-02-22T20:27:55.561Z,4.72
2024-02-22T20:30:23.492Z,6.63
2024-02-22T20:32:51.653Z,1.97
2024-02-22T20:35:25.499Z,1.00
2024-02-22T20:37:54.850Z,9.10
2024-02-22T20:40:25.706Z,4.27
2024-02-22T20:42:59.047Z,2.83
2024-02-22T20:45:27.758Z,1.63
2024-02-22T20:47:55.565Z,5.37
2024-02-22T20:50:23.466Z,2.40
2024-02-22T20:52:51.393Z,3.45
2024-02-22T20:55:19.418Z,3.15
2024-02-22T20:57:47.244Z,1.73
2024-02-22T21:00:15.165Z,9.45
2024-02-22T21:02:43.838Z,0.70
2024-02-22T21:05:12.138Z,7.10
2024-02-22T21:07:40.247Z,6.10
2024-02-22T21:10:08.349Z,0.30
2024-02-22T21:12:38.624Z,4.97
2024-02-22T21:15:09.648Z,1.85
2024-02-22T21:17:37.567Z,2.38
2024-02-22T21:20:07.063Z,3.00
2024-02-22T21:22:35.668Z,4.00
2024-02-22T21:25:03.570Z,3.63
2024-02-22T21:27:31.340Z,1.10
2024-02-22T21:30:00.446Z,3.03
2024-02-22T21:32:28.578Z,1.10
2024-02-22T21:34:56.461Z,6.43
2024-02-22T21:37:29.132Z,3.07
2024-02-22T21:39:59.818Z,3.60
2024-02-22T21:42:27.582Z,3.22
2024-02-22T21:44:58.141Z,1.73
2024-02-22T21:47:29.161Z,5.50
2024-02-22T21:49:57.060Z,1.48
2024-02-22T21:52:24.797Z,3.47
2024-02-22T21:54:52.460Z,8.90
2024-02-22T21:57:20.154Z,2.35
2024-02-22T21:59:48.197Z,1.77
2024-02-22T22:02:16.274Z,4.30
2024-02-22T22:04:47.061Z,5.45
2024-02-22T22:07:14.852Z,3.40
2024-02-22T22:09:44.848Z,4.75
2024-02-22T22:12:13.380Z,4.33
2024-02-22T22:14:41.193Z,6.68
2024-02-22T22:17:08.935Z,3.63
2024-02-22T22:19:36.927Z,4.07
2024-02-22T22:22:05.642Z,4.50
2024-02-22T22:24:35.851Z,2.55
2024-02-22T22:27:04.572Z,4.50
2024-02-22T22:29:32.320Z,5.35
2024-02-22T22:32:00.777Z,6.65
2024-02-22T22:34:28.975Z,5.93
2024-02-22T22:36:56.692Z,3.13
2024-02-22T22:39:24.367Z,4.20
2024-02-22T22:41:53.514Z,3.60
2024-02-22T22:44:21.368Z,5.33
2024-02-22T22:46:49.108Z,10.73
2024-02-22T22:49:16.859Z,3.70
2024-02-22T22:51:44.629Z,6.53
2024-02-22T22:54:12.356Z,5.57
2024-02-22T22:56:42.541Z,6.57
2024-02-22T22:59:10.407Z,10.82
2024-02-22T23:01:38.153Z,5.47
2024-02-22T23:04:05.887Z,6.60
2024-02-22T23:06:33.654Z,5.53
2024-02-22T23:09:01.412Z,17.97
2024-02-22T23:11:31.318Z,9.27
2024-02-22T23:13:59.296Z,10.88
2024-02-22T23:16:27.021Z,9.83
2024-02-22T23:18:54.764Z,11.30
2024-02-22T23:21:24.531Z,12.68
2024-02-22T23:23:52.263Z,4.25
2024-02-22T23:26:20.059Z,9.60
2024-02-22T23:28:47.852Z,8.05
2024-02-22T23:31:16.844Z,9.60
2024-02-22T23:33:44.539Z,10.03
2024-02-22T23:36:12.282Z,9.18
2024-02-22T23:38:40.015Z,6.85
2024-02-22T23:41:21.731Z,8.83
2024-02-22T23:43:56.104Z,5.45
2024-02-22T23:46:23.884Z,9.02
2024-02-22T23:48:51.767Z,3.88
2024-02-22T23:51:19.671Z,9.97
2024-02-22T23:53:47.443Z,7.45
2024-02-22T23:56:15.965Z,10.88
2024-02-22T23:58:43.940Z,7.40
